sensor_id;sensor_type;location;lat;lon;timestamp;temperature;humidity
25112;DHT22;13092;51.996;4.458;2022-12-17T00:02:01;-1.80;99.90
25112;DHT22;13092;51.996;4.458;2022-12-17T00:04:46;-1.80;99.90
25112;DHT22;13092;51.996;4.458;2022-12-17T00:07:32;-1.70;99.90
25112;DHT22;13092;51.996;4.458;2022-12-17T00:10:17;-1.70;99.90
25112;DHT22;13092;51.996;4.458;2022-12-17T00:13:03;-1.70;99.90
25112;DHT22;13092;51.996;4.458;2022-12-17T00:15:50;-1.70;99.90
25112;DHT22;13092;51.996;4.458;2022-12-17T00:18:37;-1.70;99.90
25112;DHT22;13092;51.996;4.458;2022-12-17T00:21:23;-1.60;99.90
25112;DHT22;13092;51.996;4.458;2022-12-17T00:24:09;-1.60;99.90
25112;DHT22;13092;51.996;4.458;2022-12-17T00:26:54;-1.60;99.90
25112;DHT22;13092;51.996;4.458;2022-12-17T00:29:39;-1.60;99.90
25112;DHT22;13092;51.996;4.458;2022-12-17T00:32:25;-1.50;99.90
25112;DHT22;13092;51.996;4.458;2022-12-17T00:35:14;-1.50;99.90
25112;DHT22;13092;51.996;4.458;2022-12-17T00:37:59;-1.50;99.90
25112;DHT22;13092;51.996;4.458;2022-12-17T00:40:49;-1.50;99.90
25112;DHT22;13092;51.996;4.458;2022-12-17T00:43:35;-1.50;99.90
25112;DHT22;13092;51.996;4.458;2022-12-17T00:46:22;-1.50;99.90
25112;DHT22;13092;51.996;4.458;2022-12-17T00:49:07;-1.50;99.90
25112;DHT22;13092;51.996;4.458;2022-12-17T00:51:54;-1.50;99.90
25112;DHT22;13092;51.996;4.458;2022-12-17T00:54:39;-1.50;99.90
25112;DHT22;13092;51.996;4.458;2022-12-17T00:57:25;-1.50;99.90
25112;DHT22;13092;51.996;4.458;2022-12-17T01:00:11;-1.50;99.90
25112;DHT22;13092;51.996;4.458;2022-12-17T01:03:06;-1.50;99.90
25112;DHT22;13092;51.996;4.458;2022-12-17T01:05:52;-1.50;99.90
25112;DHT22;13092;51.996;4.458;2022-12-17T01:08:39;-1.40;99.90
25112;DHT22;13092;51.996;4.458;2022-12-17T01:11:25;-1.40;99.90
25112;DHT22;13092;51.996;4.458;2022-12-17T01:14:10;-1.30;99.90
25112;DHT22;13092;51.996;4.458;2022-12-17T01:16:56;-1.30;99.90
25112;DHT22;13092;51.996;4.458;2022-12-17T01:19:42;-1.40;99.90
25112;DHT22;13092;51.996;4.458;2022-12-17T01:22:27;-1.40;99.90
25112;DHT22;13092;51.996;4.458;2022-12-17T01:25:14;-1.40;99.90
25112;DHT22;13092;51.996;4.458;2022-12-17T01:28:02;-1.30;99.90
25112;DHT22;13092;51.996;4.458;2022-12-17T01:30:48;-1.30;99.90
25112;DHT22;13092;51.996;4.458;2022-12-17T01:33:33;-1.30;99.90
25112;DHT22;13092;51.996;4.458;2022-12-17T01:36:24;-1.30;99.90
25112;DHT22;13092;51.996;4.458;2022-12-17T01:39:09;-1.30;99.90
25112;DHT22;13092;51.996;4.458;2022-12-17T01:41:56;-1.30;99.90
25112;DHT22;13092;51.996;4.458;2022-12-17T01:44:49;-1.40;99.90
25112;DHT22;13092;51.996;4.458;2022-12-17T01:47:38;-1.40;99.90
25112;DHT22;13092;51.996;4.458;2022-12-17T01:50:27;-1.40;99.90
25112;DHT22;13092;51.996;4.458;2022-12-17T01:53:14;-1.40;99.90
25112;DHT22;13092;51.996;4.458;2022-12-17T01:56:01;-1.40;99.90
25112;DHT22;13092;51.996;4.458;2022-12-17T01:58:48;-1.40;99.90
25112;DHT22;13092;51.996;4.458;2022-12-17T02:01:34;-1.40;99.90
25112;DHT22;13092;51.996;4.458;2022-12-17T02:04:20;-1.40;99.90
25112;DHT22;13092;51.996;4.458;2022-12-17T02:07:16;-1.40;99.90
25112;DHT22;13092;51.996;4.458;2022-12-17T02:10:15;-1.40;99.90
25112;DHT22;13092;51.996;4.458;2022-12-17T02:13:09;-1.40;99.90
25112;DHT22;13092;51.996;4.458;2022-12-17T02:16:01;-1.40;99.90
25112;DHT22;13092;51.996;4.458;2022-12-17T02:18:52;-1.50;99.90
25112;DHT22;13092;51.996;4.458;2022-12-17T02:21:40;-1.50;99.90
25112;DHT22;13092;51.996;4.458;2022-12-17T02:24:31;-1.50;99.90
25112;DHT22;13092;51.996;4.458;2022-12-17T02:27:33;-1.50;99.90
25112;DHT22;13092;51.996;4.458;2022-12-17T02:30:19;-1.50;99.90
25112;DHT22;13092;51.996;4.458;2022-12-17T02:33:05;-1.60;99.90
25112;DHT22;13092;51.996;4.458;2022-12-17T02:35:54;-1.50;99.90
25112;DHT22;13092;51.996;4.458;2022-12-17T02:38:41;-1.50;99.90
25112;DHT22;13092;51.996;4.458;2022-12-17T02:41:28;-1.50;99.90
25112;DHT22;13092;51.996;4.458;2022-12-17T02:44:17;-1.50;99.90
25112;DHT22;13092;51.996;4.458;2022-12-17T02:47:06;-1.50;99.90
25112;DHT22;13092;51.996;4.458;2022-12-17T02:49:52;-1.40;99.90
25112;DHT22;13092;51.996;4.458;2022-12-17T02:52:43;-1.50;99.90
25112;DHT22;13092;51.996;4.458;2022-12-17T02:55:29;-1.50;99.90
25112;DHT22;13092;51.996;4.458;2022-12-17T02:58:14;-1.50;99.90
25112;DHT22;13092;51.996;4.458;2022-12-17T03:01:01;-1.50;99.90
25112;DHT22;13092;51.996;4.458;2022-12-17T03:03:47;-1.50;99.90
25112;DHT22;13092;51.996;4.458;2022-12-17T03:06:32;-1.50;99.90
25112;DHT22;13092;51.996;4.458;2022-12-17T03:09:17;-1.50;99.90
25112;DHT22;13092;51.996;4.458;2022-12-17T03:12:03;-1.50;99.90
25112;DHT22;13092;51.996;4.458;2022-12-17T03:14:49;-1.50;99.90
25112;DHT22;13092;51.996;4.458;2022-12-17T03:17:36;-1.50;99.90
25112;DHT22;13092;51.996;4.458;2022-12-17T03:20:25;-1.60;99.90
25112;DHT22;13092;51.996;4.458;2022-12-17T03:23:11;-1.40;99.90
25112;DHT22;13092;51.996;4.458;2022-12-17T03:25:58;-1.60;99.90
25112;DHT22;13092;51.996;4.458;2022-12-17T03:28:43;-1.60;99.90
25112;DHT22;13092;51.996;4.458;2022-12-17T03:31:29;-1.60;99.90
25112;DHT22;13092;51.996;4.458;2022-12-17T03:34:16;-1.50;99.90
25112;DHT22;13092;51.996;4.458;2022-12-17T03:37:02;-1.50;99.90
25112;DHT22;13092;51.996;4.458;2022-12-17T03:39:47;-1.50;99.90
25112;DHT22;13092;51.996;4.458;2022-12-17T03:42:34;-1.40;99.90
25112;DHT22;13092;51.996;4.458;2022-12-17T03:45:19;-1.50;99.90
25112;DHT22;13092;51.996;4.458;2022-12-17T03:48:06;-1.40;99.90
25112;DHT22;13092;51.996;4.458;2022-12-17T03:50:59;-1.40;99.90
25112;DHT22;13092;51.996;4.458;2022-12-17T03:53:45;-1.40;99.90
25112;DHT22;13092;51.996;4.458;2022-12-17T03:56:36;-1.40;99.90
25112;DHT22;13092;51.996;4.458;2022-12-17T03:59:22;-1.30;99.90
25112;DHT22;13092;51.996;4.458;2022-12-17T04:02:07;-1.30;99.90
25112;DHT22;13092;51.996;4.458;2022-12-17T04:04:53;-1.20;99.90
25112;DHT22;13092;51.996;4.458;2022-12-17T04:07:47;-1.30;99.90
25112;DHT22;13092;51.996;4.458;2022-12-17T04:10:33;-1.30;99.90
25112;DHT22;13092;51.996;4.458;2022-12-17T04:13:26;-1.30;99.90
25112;DHT22;13092;51.996;4.458;2022-12-17T04:16:13;-1.30;99.90
25112;DHT22;13092;51.996;4.458;2022-12-17T04:18:58;-1.30;99.90
25112;DHT22;13092;51.996;4.458;2022-12-17T04:21:52;-1.20;99.90
25112;DHT22;13092;51.996;4.458;2022-12-17T04:24:39;-1.30;99.90
25112;DHT22;13092;51.996;4.458;2022-12-17T04:27:25;-1.20;99.90
25112;DHT22;13092;51.996;4.458;2022-12-17T04:30:11;-1.20;99.90
25112;DHT22;13092;51.996;4.458;2022-12-17T04:32:56;-1.20;99.90
25112;DHT22;13092;51.996;4.458;2022-12-17T04:35:42;-1.30;99.90
25112;DHT22;13092;51.996;4.458;2022-12-17T04:38:27;-1.30;99.90
25112;DHT22;13092;51.996;4.458;2022-12-17T04:41:14;-1.30;99.90
25112;DHT22;13092;51.996;4.458;2022-12-17T04:44:00;-1.30;99.90
25112;DHT22;13092;51.996;4.458;2022-12-17T04:46:45;-1.20;99.90
25112;DHT22;13092;51.996;4.458;2022-12-17T04:49:33;-1.30;99.90
25112;DHT22;13092;51.996;4.458;2022-12-17T04:52:18;-1.30;99.90
25112;DHT22;13092;51.996;4.458;2022-12-17T04:55:04;-1.30;99.90
25112;DHT22;13092;51.996;4.458;2022-12-17T04:57:51;-1.30;99.90
25112;DHT22;13092;51.996;4.458;2022-12-17T05:00:37;-1.30;99.90
25112;DHT22;13092;51.996;4.458;2022-12-17T05:03:22;-1.30;99.90
25112;DHT22;13092;51.996;4.458;2022-12-17T05:06:08;-1.30;99.90
25112;DHT22;13092;51.996;4.458;2022-12-17T05:08:53;-1.30;99.90
25112;DHT22;13092;51.996;4.458;2022-12-17T05:11:39;-1.20;99.90
25112;DHT22;13092;51.996;4.458;2022-12-17T05:14:26;-1.20;99.90
25112;DHT22;13092;51.996;4.458;2022-12-17T05:17:11;-1.20;99.90
25112;DHT22;13092;51.996;4.458;2022-12-17T05:19:57;-1.10;99.90
25112;DHT22;13092;51.996;4.458;2022-12-17T05:22:42;-1.20;99.90
25112;DHT22;13092;51.996;4.458;2022-12-17T05:25:28;-1.20;99.90
25112;DHT22;13092;51.996;4.458;2022-12-17T05:28:13;-1.20;99.90
25112;DHT22;13092;51.996;4.458;2022-12-17T05:31:00;-1.20;99.90
25112;DHT22;13092;51.996;4.458;2022-12-17T05:33:45;-1.20;99.90
25112;DHT22;13092;51.996;4.458;2022-12-17T05:36:31;-1.20;99.90
25112;DHT22;13092;51.996;4.458;2022-12-17T05:39:17;-1.10;99.90
25112;DHT22;13092;51.996;4.458;2022-12-17T05:42:03;-1.10;99.90
25112;DHT22;13092;51.996;4.458;2022-12-17T05:44:48;-1.10;99.90
25112;DHT22;13092;51.996;4.458;2022-12-17T05:47:35;-1.00;99.90
25112;DHT22;13092;51.996;4.458;2022-12-17T05:50:21;-1.10;99.90
25112;DHT22;13092;51.996;4.458;2022-12-17T05:53:06;-1.00;99.90
25112;DHT22;13092;51.996;4.458;2022-12-17T05:55:52;-1.00;99.90
25112;DHT22;13092;51.996;4.458;2022-12-17T05:58:37;-1.10;99.90
25112;DHT22;13092;51.996;4.458;2022-12-17T06:01:23;-1.00;99.90
25112;DHT22;13092;51.996;4.458;2022-12-17T06:04:10;-1.00;99.90
25112;DHT22;13092;51.996;4.458;2022-12-17T06:06:56;-1.10;99.90
25112;DHT22;13092;51.996;4.458;2022-12-17T06:09:41;-1.10;99.90
25112;DHT22;13092;51.996;4.458;2022-12-17T06:12:27;-1.10;99.90
25112;DHT22;13092;51.996;4.458;2022-12-17T06:15:12;-1.10;99.90
25112;DHT22;13092;51.996;4.458;2022-12-17T06:17:58;-1.10;99.90
25112;DHT22;13092;51.996;4.458;2022-12-17T06:20:45;-1.10;99.90
25112;DHT22;13092;51.996;4.458;2022-12-17T06:23:39;-1.10;99.90
25112;DHT22;13092;51.996;4.458;2022-12-17T06:26:25;-1.00;99.90
25112;DHT22;13092;51.996;4.458;2022-12-17T06:29:10;-1.00;99.90
25112;DHT22;13092;51.996;4.458;2022-12-17T06:32:10;-1.00;99.90
25112;DHT22;13092;51.996;4.458;2022-12-17T06:34:55;-0.90;99.90
25112;DHT22;13092;51.996;4.458;2022-12-17T06:37:42;-0.90;99.90
25112;DHT22;13092;51.996;4.458;2022-12-17T06:40:28;-0.90;99.90
25112;DHT22;13092;51.996;4.458;2022-12-17T06:43:13;-0.90;99.90
25112;DHT22;13092;51.996;4.458;2022-12-17T06:46:00;-0.80;99.90
25112;DHT22;13092;51.996;4.458;2022-12-17T06:48:45;-0.80;99.90
25112;DHT22;13092;51.996;4.458;2022-12-17T06:51:31;-0.80;99.90
25112;DHT22;13092;51.996;4.458;2022-12-17T06:54:18;-0.80;99.90
25112;DHT22;13092;51.996;4.458;2022-12-17T06:57:03;-0.80;99.90
25112;DHT22;13092;51.996;4.458;2022-12-17T06:59:49;-0.80;99.90
25112;DHT22;13092;51.996;4.458;2022-12-17T07:02:34;-0.80;99.90
25112;DHT22;13092;51.996;4.458;2022-12-17T07:05:20;-0.80;99.90
25112;DHT22;13092;51.996;4.458;2022-12-17T07:08:05;-0.80;99.90
25112;DHT22;13092;51.996;4.458;2022-12-17T07:10:59;-0.80;99.90
25112;DHT22;13092;51.996;4.458;2022-12-17T07:13:45;-0.80;99.90
25112;DHT22;13092;51.996;4.458;2022-12-17T07:16:31;-0.90;99.90
25112;DHT22;13092;51.996;4.458;2022-12-17T07:19:16;-0.90;99.90
25112;DHT22;13092;51.996;4.458;2022-12-17T07:22:02;-0.90;99.90
25112;DHT22;13092;51.996;4.458;2022-12-17T07:24:48;-0.90;99.90
25112;DHT22;13092;51.996;4.458;2022-12-17T07:27:35;-1.00;99.90
25112;DHT22;13092;51.996;4.458;2022-12-17T07:30:21;-1.00;99.90
25112;DHT22;13092;51.996;4.458;2022-12-17T07:33:08;-1.00;99.90
25112;DHT22;13092;51.996;4.458;2022-12-17T07:35:54;-1.10;99.90
25112;DHT22;13092;51.996;4.458;2022-12-17T07:38:40;-1.00;99.90
25112;DHT22;13092;51.996;4.458;2022-12-17T07:41:25;-1.00;99.90
25112;DHT22;13092;51.996;4.458;2022-12-17T07:44:12;-1.00;99.90
25112;DHT22;13092;51.996;4.458;2022-12-17T07:46:58;-1.00;99.90
25112;DHT22;13092;51.996;4.458;2022-12-17T07:49:43;-1.00;99.90
25112;DHT22;13092;51.996;4.458;2022-12-17T07:52:29;-1.00;99.90
25112;DHT22;13092;51.996;4.458;2022-12-17T07:55:14;-0.90;99.90
25112;DHT22;13092;51.996;4.458;2022-12-17T07:58:01;-0.90;99.90
25112;DHT22;13092;51.996;4.458;2022-12-17T08:00:49;-0.90;99.90
25112;DHT22;13092;51.996;4.458;2022-12-17T08:03:31;-0.80;99.90
25112;DHT22;13092;51.996;4.458;2022-12-17T08:06:16;-0.80;99.90
25112;DHT22;13092;51.996;4.458;2022-12-17T08:09:02;-0.90;99.90
25112;DHT22;13092;51.996;4.458;2022-12-17T08:11:48;-0.90;99.90
25112;DHT22;13092;51.996;4.458;2022-12-17T08:14:33;-0.90;99.90
25112;DHT22;13092;51.996;4.458;2022-12-17T08:17:20;-0.90;99.90
25112;DHT22;13092;51.996;4.458;2022-12-17T08:20:07;-0.80;99.90
25112;DHT22;13092;51.996;4.458;2022-12-17T08:22:59;-0.80;99.90
25112;DHT22;13092;51.996;4.458;2022-12-17T08:25:45;-0.80;99.90
25112;DHT22;13092;51.996;4.458;2022-12-17T08:28:30;-0.70;99.90
25112;DHT22;13092;51.996;4.458;2022-12-17T08:31:17;-0.70;99.90
25112;DHT22;13092;51.996;4.458;2022-12-17T08:34:05;-0.70;99.90
25112;DHT22;13092;51.996;4.458;2022-12-17T08:36:50;-0.70;99.90
25112;DHT22;13092;51.996;4.458;2022-12-17T08:39:36;-0.60;99.90
25112;DHT22;13092;51.996;4.458;2022-12-17T08:42:21;-0.50;99.90
25112;DHT22;13092;51.996;4.458;2022-12-17T08:45:08;-0.60;99.90
25112;DHT22;13092;51.996;4.458;2022-12-17T08:48:03;-0.50;99.90
25112;DHT22;13092;51.996;4.458;2022-12-17T08:50:50;-0.50;99.90
25112;DHT22;13092;51.996;4.458;2022-12-17T08:53:36;-0.50;99.90
25112;DHT22;13092;51.996;4.458;2022-12-17T08:56:21;-0.30;99.90
25112;DHT22;13092;51.996;4.458;2022-12-17T08:59:07;-0.40;99.90
25112;DHT22;13092;51.996;4.458;2022-12-17T09:01:52;-0.40;99.90
25112;DHT22;13092;51.996;4.458;2022-12-17T09:04:41;-0.40;99.90
25112;DHT22;13092;51.996;4.458;2022-12-17T09:07:28;-0.30;99.90
25112;DHT22;13092;51.996;4.458;2022-12-17T09:10:14;-0.30;99.90
25112;DHT22;13092;51.996;4.458;2022-12-17T09:13:01;-0.30;99.90
25112;DHT22;13092;51.996;4.458;2022-12-17T09:15:50;-0.30;99.90
25112;DHT22;13092;51.996;4.458;2022-12-17T09:18:36;-0.30;99.90
25112;DHT22;13092;51.996;4.458;2022-12-17T09:21:23;-0.30;99.90
25112;DHT22;13092;51.996;4.458;2022-12-17T09:24:10;-0.30;99.90
25112;DHT22;13092;51.996;4.458;2022-12-17T09:26:56;-0.30;99.90
25112;DHT22;13092;51.996;4.458;2022-12-17T09:29:41;-0.20;99.90
25112;DHT22;13092;51.996;4.458;2022-12-17T09:32:27;-0.20;99.90
25112;DHT22;13092;51.996;4.458;2022-12-17T09:35:12;-0.20;99.90
25112;DHT22;13092;51.996;4.458;2022-12-17T09:38:11;-0.20;99.90
25112;DHT22;13092;51.996;4.458;2022-12-17T09:41:01;-0.10;99.90
25112;DHT22;13092;51.996;4.458;2022-12-17T09:44:00;-0.20;99.90
25112;DHT22;13092;51.996;4.458;2022-12-17T09:46:51;-0.10;99.90
25112;DHT22;13092;51.996;4.458;2022-12-17T09:49:39;-0.10;99.90
25112;DHT22;13092;51.996;4.458;2022-12-17T09:52:26;-0.10;99.90
25112;DHT22;13092;51.996;4.458;2022-12-17T09:55:20;0.00;99.90
25112;DHT22;13092;51.996;4.458;2022-12-17T09:58:17;0.00;99.90
25112;DHT22;13092;51.996;4.458;2022-12-17T10:01:03;0.00;99.90
25112;DHT22;13092;51.996;4.458;2022-12-17T10:03:49;0.00;99.90
25112;DHT22;13092;51.996;4.458;2022-12-17T10:06:36;0.10;99.90
25112;DHT22;13092;51.996;4.458;2022-12-17T10:09:24;0.10;99.90
25112;DHT22;13092;51.996;4.458;2022-12-17T10:12:13;0.10;99.90
25112;DHT22;13092;51.996;4.458;2022-12-17T10:15:01;0.10;99.90
25112;DHT22;13092;51.996;4.458;2022-12-17T10:17:58;0.20;99.90
25112;DHT22;13092;51.996;4.458;2022-12-17T10:20:53;0.20;99.90
25112;DHT22;13092;51.996;4.458;2022-12-17T10:23:41;0.20;99.90
25112;DHT22;13092;51.996;4.458;2022-12-17T10:26:28;0.30;99.90
25112;DHT22;13092;51.996;4.458;2022-12-17T10:29:15;0.30;99.90
25112;DHT22;13092;51.996;4.458;2022-12-17T10:32:17;0.30;99.90
25112;DHT22;13092;51.996;4.458;2022-12-17T10:35:08;0.40;99.90
25112;DHT22;13092;51.996;4.458;2022-12-17T10:38:00;0.40;99.90
25112;DHT22;13092;51.996;4.458;2022-12-17T10:40:45;0.50;99.90
25112;DHT22;13092;51.996;4.458;2022-12-17T10:43:33;0.40;99.90
25112;DHT22;13092;51.996;4.458;2022-12-17T10:46:23;0.50;99.90
25112;DHT22;13092;51.996;4.458;2022-12-17T10:49:14;0.60;99.90
25112;DHT22;13092;51.996;4.458;2022-12-17T10:52:01;0.60;99.90
25112;DHT22;13092;51.996;4.458;2022-12-17T10:54:59;0.60;99.90
25112;DHT22;13092;51.996;4.458;2022-12-17T10:57:48;0.60;99.90
25112;DHT22;13092;51.996;4.458;2022-12-17T11:00:36;0.80;99.90
25112;DHT22;13092;51.996;4.458;2022-12-17T11:03:27;0.80;99.90
25112;DHT22;13092;51.996;4.458;2022-12-17T11:06:19;0.80;99.90
25112;DHT22;13092;51.996;4.458;2022-12-17T11:09:15;0.90;99.90
25112;DHT22;13092;51.996;4.458;2022-12-17T11:12:04;0.90;99.90
25112;DHT22;13092;51.996;4.458;2022-12-17T11:14:59;1.00;99.90
25112;DHT22;13092;51.996;4.458;2022-12-17T11:17:48;1.00;99.90
25112;DHT22;13092;51.996;4.458;2022-12-17T11:20:43;1.10;99.90
25112;DHT22;13092;51.996;4.458;2022-12-17T11:23:35;1.10;99.90
25112;DHT22;13092;51.996;4.458;2022-12-17T11:26:24;1.10;99.90
25112;DHT22;13092;51.996;4.458;2022-12-17T11:29:11;1.10;99.90
25112;DHT22;13092;51.996;4.458;2022-12-17T11:32:20;1.20;99.90
25112;DHT22;13092;51.996;4.458;2022-12-17T11:35:13;1.20;99.90
25112;DHT22;13092;51.996;4.458;2022-12-17T11:38:10;1.30;99.90
25112;DHT22;13092;51.996;4.458;2022-12-17T11:41:06;1.30;99.90
25112;DHT22;13092;51.996;4.458;2022-12-17T11:43:58;1.30;99.90
25112;DHT22;13092;51.996;4.458;2022-12-17T11:46:52;1.40;99.90
25112;DHT22;13092;51.996;4.458;2022-12-17T11:49:47;1.40;99.90
25112;DHT22;13092;51.996;4.458;2022-12-17T11:52:45;1.40;99.90
25112;DHT22;13092;51.996;4.458;2022-12-17T11:55:36;1.50;99.90
25112;DHT22;13092;51.996;4.458;2022-12-17T11:58:32;1.50;99.90
25112;DHT22;13092;51.996;4.458;2022-12-17T12:01:28;1.60;99.90
25112;DHT22;13092;51.996;4.458;2022-12-17T12:04:24;1.50;99.90
25112;DHT22;13092;51.996;4.458;2022-12-17T12:07:17;1.50;99.90
25112;DHT22;13092;51.996;4.458;2022-12-17T12:10:16;1.50;99.90
25112;DHT22;13092;51.996;4.458;2022-12-17T12:13:14;1.50;99.90
25112;DHT22;13092;51.996;4.458;2022-12-17T12:16:13;1.50;99.90
25112;DHT22;13092;51.996;4.458;2022-12-17T12:19:15;1.60;99.90
25112;DHT22;13092;51.996;4.458;2022-12-17T12:22:09;1.60;99.90
25112;DHT22;13092;51.996;4.458;2022-12-17T12:25:16;1.60;99.90
25112;DHT22;13092;51.996;4.458;2022-12-17T12:28:10;1.70;99.90
25112;DHT22;13092;51.996;4.458;2022-12-17T12:31:11;1.70;99.90
25112;DHT22;13092;51.996;4.458;2022-12-17T12:34:03;1.70;99.90
25112;DHT22;13092;51.996;4.458;2022-12-17T12:36:51;1.80;99.90
25112;DHT22;13092;51.996;4.458;2022-12-17T12:39:39;1.80;99.90
25112;DHT22;13092;51.996;4.458;2022-12-17T12:42:33;1.80;99.90
25112;DHT22;13092;51.996;4.458;2022-12-17T12:45:33;1.90;99.90
25112;DHT22;13092;51.996;4.458;2022-12-17T12:48:39;1.90;99.90
25112;DHT22;13092;51.996;4.458;2022-12-17T12:51:29;2.00;99.90
25112;DHT22;13092;51.996;4.458;2022-12-17T12:54:22;2.00;99.90
25112;DHT22;13092;51.996;4.458;2022-12-17T12:57:26;2.00;99.90
25112;DHT22;13092;51.996;4.458;2022-12-17T13:00:25;2.10;99.90
25112;DHT22;13092;51.996;4.458;2022-12-17T13:03:23;2.10;99.90
25112;DHT22;13092;51.996;4.458;2022-12-17T13:06:08;2.20;99.90
25112;DHT22;13092;51.996;4.458;2022-12-17T13:08:36;2.10;99.90
25112;DHT22;13092;51.996;4.458;2022-12-17T13:11:20;2.10;99.90
25112;DHT22;13092;51.996;4.458;2022-12-17T13:13:54;2.20;99.90
25112;DHT22;13092;51.996;4.458;2022-12-17T13:16:37;2.30;99.90
25112;DHT22;13092;51.996;4.458;2022-12-17T13:19:19;2.30;99.90
25112;DHT22;13092;51.996;4.458;2022-12-17T13:21:49;2.30;99.90
25112;DHT22;13092;51.996;4.458;2022-12-17T13:24:26;2.30;99.90
25112;DHT22;13092;51.996;4.458;2022-12-17T13:26:54;2.30;99.90
25112;DHT22;13092;51.996;4.458;2022-12-17T13:29:26;2.30;99.90
25112;DHT22;13092;51.996;4.458;2022-12-17T13:32:05;2.30;99.90
25112;DHT22;13092;51.996;4.458;2022-12-17T13:34:47;2.40;99.90
25112;DHT22;13092;51.996;4.458;2022-12-17T13:37:25;2.40;99.90
25112;DHT22;13092;51.996;4.458;2022-12-17T13:40:03;2.40;99.90
25112;DHT22;13092;51.996;4.458;2022-12-17T13:42:38;2.40;99.90
25112;DHT22;13092;51.996;4.458;2022-12-17T13:45:14;2.40;99.90
25112;DHT22;13092;51.996;4.458;2022-12-17T13:47:42;2.40;99.90
25112;DHT22;13092;51.996;4.458;2022-12-17T13:50:20;2.40;99.90
25112;DHT22;13092;51.996;4.458;2022-12-17T13:53:14;2.40;99.90
25112;DHT22;13092;51.996;4.458;2022-12-17T13:55:49;2.30;99.90
25112;DHT22;13092;51.996;4.458;2022-12-17T13:58:21;2.30;99.90
25112;DHT22;13092;51.996;4.458;2022-12-17T14:00:50;2.40;99.90
25112;DHT22;13092;51.996;4.458;2022-12-17T14:03:20;2.30;99.90
25112;DHT22;13092;51.996;4.458;2022-12-17T14:06:10;2.40;99.90
25112;DHT22;13092;51.996;4.458;2022-12-17T14:08:40;2.50;99.90
25112;DHT22;13092;51.996;4.458;2022-12-17T14:11:10;2.50;99.90
25112;DHT22;13092;51.996;4.458;2022-12-17T14:13:56;2.40;99.90
25112;DHT22;13092;51.996;4.458;2022-12-17T14:16:25;2.50;99.90
25112;DHT22;13092;51.996;4.458;2022-12-17T14:18:56;2.50;99.90
25112;DHT22;13092;51.996;4.458;2022-12-17T14:21:25;2.50;99.90
25112;DHT22;13092;51.996;4.458;2022-12-17T14:23:55;2.50;99.90
25112;DHT22;13092;51.996;4.458;2022-12-17T14:26:24;2.40;99.90
25112;DHT22;13092;51.996;4.458;2022-12-17T14:28:53;2.40;99.90
25112;DHT22;13092;51.996;4.458;2022-12-17T14:31:23;2.40;99.90
25112;DHT22;13092;51.996;4.458;2022-12-17T14:34:00;2.40;99.90
25112;DHT22;13092;51.996;4.458;2022-12-17T14:36:35;2.60;99.90
25112;DHT22;13092;51.996;4.458;2022-12-17T14:39:16;2.40;99.90
25112;DHT22;13092;51.996;4.458;2022-12-17T14:41:45;2.40;99.90
25112;DHT22;13092;51.996;4.458;2022-12-17T14:44:32;2.40;99.90
25112;DHT22;13092;51.996;4.458;2022-12-17T14:47:12;2.40;99.90
25112;DHT22;13092;51.996;4.458;2022-12-17T14:49:52;2.30;99.90
25112;DHT22;13092;51.996;4.458;2022-12-17T14:52:33;2.40;99.90
25112;DHT22;13092;51.996;4.458;2022-12-17T14:55:23;2.30;99.90
25112;DHT22;13092;51.996;4.458;2022-12-17T14:57:53;2.30;99.90
25112;DHT22;13092;51.996;4.458;2022-12-17T15:00:21;2.20;99.90
25112;DHT22;13092;51.996;4.458;2022-12-17T15:02:51;2.20;99.90
25112;DHT22;13092;51.996;4.458;2022-12-17T15:05:22;2.20;99.90
25112;DHT22;13092;51.996;4.458;2022-12-17T15:07:51;2.10;99.90
25112;DHT22;13092;51.996;4.458;2022-12-17T15:10:22;2.10;99.90
25112;DHT22;13092;51.996;4.458;2022-12-17T15:12:51;2.10;99.90
25112;DHT22;13092;51.996;4.458;2022-12-17T15:15:19;2.10;99.90
25112;DHT22;13092;51.996;4.458;2022-12-17T15:17:49;2.20;99.90
25112;DHT22;13092;51.996;4.458;2022-12-17T15:20:19;2.10;99.90
25112;DHT22;13092;51.996;4.458;2022-12-17T15:22:47;2.10;99.90
25112;DHT22;13092;51.996;4.458;2022-12-17T15:25:16;2.00;99.90
25112;DHT22;13092;51.996;4.458;2022-12-17T15:27:47;2.00;99.90
25112;DHT22;13092;51.996;4.458;2022-12-17T15:30:16;1.90;99.90
25112;DHT22;13092;51.996;4.458;2022-12-17T15:32:44;1.80;99.90
25112;DHT22;13092;51.996;4.458;2022-12-17T15:35:16;2.00;99.90
25112;DHT22;13092;51.996;4.458;2022-12-17T15:37:44;1.70;99.90
25112;DHT22;13092;51.996;4.458;2022-12-17T15:40:12;1.70;99.90
25112;DHT22;13092;51.996;4.458;2022-12-17T15:42:40;1.60;99.90
25112;DHT22;13092;51.996;4.458;2022-12-17T15:45:33;1.50;99.90
25112;DHT22;13092;51.996;4.458;2022-12-17T15:48:01;1.40;99.90
25112;DHT22;13092;51.996;4.458;2022-12-17T15:50:29;1.30;99.90
25112;DHT22;13092;51.996;4.458;2022-12-17T15:52:57;1.30;99.90
25112;DHT22;13092;51.996;4.458;2022-12-17T15:55:26;1.20;99.90
25112;DHT22;13092;51.996;4.458;2022-12-17T15:57:54;1.10;99.90
25112;DHT22;13092;51.996;4.458;2022-12-17T16:00:22;1.10;99.90
25112;DHT22;13092;51.996;4.458;2022-12-17T16:02:52;1.00;99.90
25112;DHT22;13092;51.996;4.458;2022-12-17T16:05:21;1.00;99.90
25112;DHT22;13092;51.996;4.458;2022-12-17T16:07:50;0.90;99.90
25112;DHT22;13092;51.996;4.458;2022-12-17T16:10:18;0.80;99.90
25112;DHT22;13092;51.996;4.458;2022-12-17T16:12:50;1.00;99.90
25112;DHT22;13092;51.996;4.458;2022-12-17T16:15:20;0.80;99.90
25112;DHT22;13092;51.996;4.458;2022-12-17T16:17:49;0.80;99.90
25112;DHT22;13092;51.996;4.458;2022-12-17T16:20:20;0.80;99.90
25112;DHT22;13092;51.996;4.458;2022-12-17T16:22:48;0.70;99.90
25112;DHT22;13092;51.996;4.458;2022-12-17T16:25:16;0.60;99.90
25112;DHT22;13092;51.996;4.458;2022-12-17T16:27:45;0.60;99.90
25112;DHT22;13092;51.996;4.458;2022-12-17T16:30:14;0.60;99.90
25112;DHT22;13092;51.996;4.458;2022-12-17T16:32:42;0.50;99.90
25112;DHT22;13092;51.996;4.458;2022-12-17T16:35:10;0.60;99.90
25112;DHT22;13092;51.996;4.458;2022-12-17T16:37:41;0.40;99.90
25112;DHT22;13092;51.996;4.458;2022-12-17T16:40:10;0.40;99.90
25112;DHT22;13092;51.996;4.458;2022-12-17T16:42:38;0.40;99.90
25112;DHT22;13092;51.996;4.458;2022-12-17T16:45:07;0.30;99.90
25112;DHT22;13092;51.996;4.458;2022-12-17T16:47:35;0.30;99.90
25112;DHT22;13092;51.996;4.458;2022-12-17T16:50:04;0.30;99.90
25112;DHT22;13092;51.996;4.458;2022-12-17T16:52:33;0.20;99.90
25112;DHT22;13092;51.996;4.458;2022-12-17T16:55:04;0.10;99.90
25112;DHT22;13092;51.996;4.458;2022-12-17T16:57:32;0.10;99.90
25112;DHT22;13092;51.996;4.458;2022-12-17T17:00:00;0.10;99.90
25112;DHT22;13092;51.996;4.458;2022-12-17T17:02:30;0.00;99.90
25112;DHT22;13092;51.996;4.458;2022-12-17T17:04:58;0.00;99.90
25112;DHT22;13092;51.996;4.458;2022-12-17T17:07:27;0.00;99.90
25112;DHT22;13092;51.996;4.458;2022-12-17T17:09:56;0.00;99.90
25112;DHT22;13092;51.996;4.458;2022-12-17T17:12:33;0.00;99.90
25112;DHT22;13092;51.996;4.458;2022-12-17T17:15:04;0.00;99.90
25112;DHT22;13092;51.996;4.458;2022-12-17T17:17:33;-0.10;99.90
25112;DHT22;13092;51.996;4.458;2022-12-17T17:20:21;-0.10;99.90
25112;DHT22;13092;51.996;4.458;2022-12-17T17:22:49;-0.10;99.90
25112;DHT22;13092;51.996;4.458;2022-12-17T17:25:18;-0.20;99.90